Time;durP1;ratioP1;P1;durP2;ratioP2;P2;SDS_P1;SDS_P2;PMS_P1;PMS_P2;Temp;Humidity;BMP_temperature;BMP_pressure;BME280_temperature;BME280_humidity;BME280_pressure;Samples;Min_cycle;Max_cycle;Signal;HPM_P1;HPM_P2
2023/10/11 00:01:13;;;;;;;;;5.00;4.40;;;;;20.04;58.07;99774.50;5096907;28;8814;-59
2023/10/11 00:03:52;;;;;;;;;4.00;2.40;;;;;20.04;58.11;99770.97;5097355;28;8903;-57
2023/10/11 00:06:20;;;;;;;;;5.00;4.40;;;;;20.04;58.04;99774.50;5096863;28;8825;-58
2023/10/11 00:08:50;;;;;;;;;7.20;7.00;;;;;20.02;58.03;99781.97;5097247;28;8838;-59
2023/10/11 00:11:24;;;;;;;;;6.80;5.40;;;;;20.00;58.48;99784.00;5097020;28;8814;-57
2023/10/11 00:13:54;;;;;;;;;6.80;6.80;;;;;19.99;58.38;99776.94;5097457;28;8899;-58
2023/10/11 00:16:22;;;;;;;;;8.20;7.40;;;;;19.98;58.44;99772.56;5097101;28;8951;-59
2023/10/11 00:18:52;;;;;;;;;7.00;7.00;;;;;19.97;58.40;99789.81;5097030;28;8846;-57
2023/10/11 00:21:35;;;;;;;;;6.60;5.20;;;;;19.97;58.64;99773.59;5097450;28;8818;-57
2023/10/11 00:24:02;;;;;;;;;6.80;6.60;;;;;20.00;58.31;99770.50;5096815;28;8830;-57
2023/10/11 00:26:30;;;;;;;;;4.20;4.00;;;;;20.02;58.37;99776.53;5096401;28;8834;-60
2023/10/11 00:28:59;;;;;;;;;7.20;7.20;;;;;20.04;58.16;99770.97;5096668;28;8936;-57
2023/10/11 00:31:31;;;;;;;;;4.00;3.60;;;;;20.08;57.79;99772.28;5097291;28;9522;-57
2023/10/11 00:34:03;;;;;;;;;5.80;4.20;;;;;20.06;57.98;99763.53;5097119;28;9579;-57
2023/10/11 00:36:31;;;;;;;;;5.80;5.00;;;;;20.08;57.93;99754.22;5096796;28;8830;-58
2023/10/11 00:38:59;;;;;;;;;6.60;5.20;;;;;20.08;58.02;99758.75;5096507;28;8845;-57
2023/10/11 00:41:30;;;;;;;;;7.80;7.20;;;;;20.07;57.97;99757.94;5096792;28;8842;-57
2023/10/11 00:43:58;;;;;;;;;4.00;4.00;;;;;20.05;58.19;99757.31;5096959;28;8852;-59
2023/10/11 00:46:27;;;;;;;;;5.20;5.20;;;;;20.05;58.26;99759.16;5095992;28;8833;-59
2023/10/11 00:49:00;;;;;;;;;7.80;6.60;;;;;20.03;58.05;99759.28;5096299;28;9531;-58
2023/10/11 00:51:29;;;;;;;;;5.80;5.80;;;;;19.99;58.33;99758.00;5096882;28;8814;-58
2023/10/11 00:53:57;;;;;;;;;6.20;5.80;;;;;19.96;58.30;99760.25;5096576;28;8834;-58
2023/10/11 00:56:31;;;;;;;;;4.00;4.00;;;;;19.92;58.57;99759.78;5096429;28;9504;-57
2023/10/11 00:59:00;;;;;;;;;4.60;4.60;;;;;19.93;58.18;99758.75;5096387;28;8838;-56
2023/10/11 01:01:28;;;;;;;;;5.80;5.80;;;;;19.92;58.43;99754.38;5105052;28;8808;-59
2023/10/11 01:03:55;;;;;;;;;5.20;5.20;;;;;19.89;58.00;99745.78;5084093;28;8815;-57
2023/10/11 01:06:25;;;;;;;;;6.80;6.60;;;;;19.90;58.57;99750.16;5076960;28;8831;-57
2023/10/11 01:08:53;;;;;;;;;5.80;5.80;;;;;19.88;58.10;99750.34;5093491;28;9525;-59
2023/10/11 01:11:21;;;;;;;;;7.20;6.40;;;;;19.90;58.23;99750.16;5095666;28;8898;-57
2023/10/11 01:13:51;;;;;;;;;7.00;6.20;;;;;19.90;58.03;99748.31;5094951;28;8822;-58
2023/10/11 01:16:20;;;;;;;;;6.60;6.60;;;;;19.89;58.35;99743.09;5095483;28;8898;-58
2023/10/11 01:18:48;;;;;;;;;5.00;5.00;;;;;19.84;58.01;99740.94;5094536;28;8854;-57
2023/10/11 01:21:16;;;;;;;;;6.60;5.20;;;;;19.81;58.04;99740.47;5095657;28;8840;-59
2023/10/11 01:23:44;;;;;;;;;5.20;5.20;;;;;19.81;58.17;99745.88;5095905;28;8829;-58
2023/10/11 01:26:11;;;;;;;;;6.80;5.80;;;;;19.77;58.30;99740.00;5095568;28;8815;-59
2023/10/11 01:28:40;;;;;;;;;4.80;4.80;;;;;19.73;58.63;99737.84;5095418;28;8830;-59
2023/10/11 01:31:09;;;;;;;;;5.20;4.60;;;;;19.68;58.46;99740.25;5095978;28;8826;-58
2023/10/11 01:33:37;;;;;;;;;4.00;4.00;;;;;19.62;58.72;99738.28;5095814;28;9565;-57
2023/10/11 01:36:06;;;;;;;;;7.20;6.40;;;;;19.59;58.53;99733.28;5095896;28;8834;-59
2023/10/11 01:38:33;;;;;;;;;8.20;7.60;;;;;19.55;59.10;99727.41;5095527;28;8885;-57
2023/10/11 01:41:06;;;;;;;;;6.60;6.60;;;;;19.55;58.78;99729.25;5095853;28;8818;-58
2023/10/11 01:43:34;;;;;;;;;4.00;4.00;;;;;19.52;58.74;99725.06;5095880;28;9789;-59
2023/10/11 01:46:02;;;;;;;;;3.40;3.00;;;;;19.50;58.86;99727.09;5095377;28;8848;-57
2023/10/11 01:48:30;;;;;;;;;6.60;6.40;;;;;19.49;59.04;99728.13;5095044;28;8846;-57
2023/10/11 01:50:58;;;;;;;;;7.00;6.80;;;;;19.50;58.81;99726.28;5095396;28;9492;-59
2023/10/11 01:53:27;;;;;;;;;6.60;6.00;;;;;19.48;59.05;99720.19;5095500;28;8818;-60
2023/10/11 01:55:55;;;;;;;;;6.20;6.00;;;;;19.43;59.22;99719.94;5095367;28;8842;-57
2023/10/11 01:58:23;;;;;;;;;5.00;4.00;;;;;19.41;59.04;99711.19;5095584;28;8830;-58
2023/10/11 02:00:50;;;;;;;;;3.00;1.60;;;;;19.36;58.99;99714.41;5095329;28;8818;-59
2023/10/11 02:03:18;;;;;;;;;6.00;4.00;;;;;19.32;59.13;99705.00;5095312;28;8821;-57
2023/10/11 02:05:46;;;;;;;;;5.00;3.80;;;;;19.31;59.54;99711.44;5095409;28;9583;-58
2023/10/11 02:08:17;;;;;;;;;6.60;6.40;;;;;19.31;59.42;99707.88;5078389;28;8816;-59
2023/10/11 02:10:44;;;;;;;;;6.80;6.40;;;;;19.29;58.92;99713.47;5079226;28;8808;-59
2023/10/11 02:13:12;;;;;;;;;6.00;6.00;;;;;19.27;59.18;99706.59;5095613;28;9503;-59
2023/10/11 02:15:40;;;;;;;;;4.00;4.00;;;;;19.25;59.62;99709.44;5095186;28;9514;-57
2023/10/11 02:18:10;;;;;;;;;5.60;4.40;;;;;19.26;59.43;99708.44;5094857;28;8846;-58
2023/10/11 02:20:44;;;;;;;;;6.80;6.80;;;;;19.26;59.72;99708.44;5094676;28;8830;-57
2023/10/11 02:23:13;;;;;;;;;7.00;5.40;;;;;19.28;59.53;99706.38;5095357;28;8814;-58
2023/10/11 02:25:42;;;;;;;;;9.00;9.00;;;;;19.25;59.44;99712.16;5094676;28;8830;-57
2023/10/11 02:28:10;;;;;;;;;6.80;6.40;;;;;19.23;59.33;99711.50;5094490;28;8803;-57
2023/10/11 02:30:41;;;;;;;;;6.00;6.00;;;;;19.19;59.73;99699.38;5095641;28;8855;-56
2023/10/11 02:33:11;;;;;;;;;6.20;4.60;;;;;19.19;59.77;99699.38;5095556;28;8845;-59
2023/10/11 02:35:53;;;;;;;;;7.00;6.60;;;;;19.18;59.67;99694.16;5094175;28;8814;-57
2023/10/11 02:38:23;;;;;;;;;6.40;6.40;;;;;19.17;59.68;99693.28;5094673;28;8830;-57
2023/10/11 02:40:55;;;;;;;;;6.80;4.80;;;;;19.15;59.87;99686.41;5094859;28;8846;-57
2023/10/11 02:43:23;;;;;;;;;5.20;3.60;;;;;19.12;59.39;99690.28;5094514;28;9008;-57
2023/10/11 02:45:51;;;;;;;;;6.00;6.00;;;;;19.15;59.50;99692.66;5093666;28;9542;-57
2023/10/11 02:48:20;;;;;;;;;5.80;5.80;;;;;19.15;60.03;99689.94;5094527;28;8853;-58
2023/10/11 02:50:48;;;;;;;;;5.80;5.80;;;;;19.16;59.11;99688.06;5094323;28;8835;-58
2023/10/11 02:53:22;;;;;;;;;9.20;7.00;;;;;19.11;59.75;99685.91;5094660;28;8830;-59
2023/10/11 02:55:57;;;;;;;;;6.00;4.00;;;;;19.09;59.73;99684.41;5094479;28;8849;-59
2023/10/11 02:58:25;;;;;;;;;8.60;7.00;;;;;19.07;59.60;99675.66;5094552;28;8829;-56
2023/10/11 03:00:58;;;;;;;;;4.40;3.60;;;;;19.06;60.11;99677.53;5094505;28;8826;-59
2023/10/11 03:03:47;;;;;;;;;3.40;3.40;;;;;19.04;59.74;99682.28;5094155;28;8923;-59
2023/10/11 03:06:18;;;;;;;;;8.60;6.40;;;;;19.00;60.07;99670.16;5094212;28;8830;-58
2023/10/11 03:08:46;;;;;;;;;4.00;3.00;;;;;18.97;59.81;99681.31;5093973;28;8818;-59
2023/10/11 03:11:16;;;;;;;;;6.00;4.80;;;;;18.95;60.18;99672.56;5091947;28;8814;-59
2023/10/11 03:13:44;;;;;;;;;7.00;7.00;;;;;18.96;59.64;99668.84;5091587;28;8810;-59
2023/10/11 03:16:13;;;;;;;;;6.20;6.20;;;;;18.94;60.00;99673.59;5100219;28;8838;-59
2023/10/11 03:18:41;;;;;;;;;6.00;6.00;;;;;18.89;60.00;99678.69;5119177;28;8840;-59
2023/10/11 03:21:09;;;;;;;;;7.00;7.00;;;;;18.88;60.08;99673.50;5098734;28;8822;-59
2023/10/11 03:23:43;;;;;;;;;4.80;4.80;;;;;18.87;60.25;99671.78;5098453;28;8931;-56
2023/10/11 03:26:16;;;;;;;;;7.40;6.80;;;;;18.85;60.09;99671.13;5103784;28;8808;-59
2023/10/11 03:28:44;;;;;;;;;6.00;6.00;;;;;18.84;60.54;99681.09;5096730;28;8855;-59
2023/10/11 03:31:12;;;;;;;;;3.80;3.00;;;;;18.79;60.32;99672.72;5080832;28;8827;-58
2023/10/11 03:33:40;;;;;;;;;7.00;7.00;;;;;18.77;59.65;99679.28;5086531;28;8795;-58
2023/10/11 03:36:17;;;;;;;;;9.40;6.00;;;;;18.74;60.33;99675.09;5097771;28;8948;-57
2023/10/11 03:38:51;;;;;;;;;6.80;6.00;;;;;18.72;60.31;99679.00;5097620;28;8814;-59
2023/10/11 03:41:25;;;;;;;;;7.80;6.80;;;;;18.69;60.43;99672.13;5097666;28;8845;-57
2023/10/11 03:43:54;;;;;;;;;3.00;3.00;;;;;18.69;60.65;99676.66;5097751;28;8818;-59
2023/10/11 03:46:25;;;;;;;;;5.60;5.60;;;;;18.66;60.60;99672.47;5097716;28;8830;-58
2023/10/11 03:48:56;;;;;;;;;6.20;4.00;;;;;18.61;60.64;99668.63;5097597;28;8830;-58
2023/10/11 03:51:23;;;;;;;;;8.60;5.20;;;;;18.55;60.76;99672.03;5096902;28;8806;-59
2023/10/11 03:53:52;;;;;;;;;4.00;4.00;;;;;18.49;60.60;99670.03;5097173;28;8837;-59
2023/10/11 03:56:19;;;;;;;;;6.00;6.00;;;;;18.47;60.97;99678.34;5097791;28;8814;-58
2023/10/11 03:58:50;;;;;;;;;6.40;4.80;;;;;18.45;61.10;99674.97;5091707;28;8802;-57
2023/10/11 04:01:24;;;;;;;;;4.00;4.00;;;;;18.43;60.84;99673.47;5096589;28;8838;-58
2023/10/11 04:03:52;;;;;;;;;8.20;5.60;;;;;18.39;60.88;99675.69;5096842;28;8803;-57
2023/10/11 04:06:20;;;;;;;;;5.60;5.60;;;;;18.39;60.83;99672.16;5096828;28;8845;-58
2023/10/11 04:08:54;;;;;;;;;5.20;5.20;;;;;18.39;60.99;99675.69;5097189;28;8814;-59
2023/10/11 04:11:30;;;;;;;;;4.00;3.40;;;;;18.38;60.67;99674.00;5097327;28;8885;-57
2023/10/11 04:13:59;;;;;;;;;6.80;6.80;;;;;18.33;61.03;99681.78;5097167;28;8848;-57
2023/10/11 04:16:28;;;;;;;;;6.60;6.40;;;;;18.29;60.78;99675.03;5096744;28;8822;-57
2023/10/11 04:19:01;;;;;;;;;6.20;6.00;;;;;18.26;61.35;99677.25;5097232;28;8847;-57
2023/10/11 04:21:39;;;;;;;;;6.80;6.00;;;;;18.24;61.02;99676.59;5096543;28;8822;-59
2023/10/11 04:24:07;;;;;;;;;7.00;6.60;;;;;18.25;60.93;99665.63;5096480;28;9571;-56
2023/10/11 04:26:37;;;;;;;;;4.40;4.40;;;;;18.24;60.93;99672.03;5096335;28;8821;-57
2023/10/11 04:29:07;;;;;;;;;1.80;1.00;;;;;18.21;60.87;99675.06;5096399;28;8912;-59
2023/10/11 04:31:53;;;;;;;;;6.20;6.20;;;;;18.16;60.98;99661.31;5092351;28;9517;-57
2023/10/11 04:34:23;;;;;;;;;7.00;6.80;;;;;18.11;61.05;99668.22;5076259;28;8855;-57
2023/10/11 04:36:51;;;;;;;;;6.00;6.00;;;;;18.08;61.16;99660.50;5087051;28;8812;-59
2023/10/11 04:39:27;;;;;;;;;3.00;3.00;;;;;18.07;61.09;99662.34;5116298;28;8820;-58
2023/10/11 04:41:57;;;;;;;;;4.00;4.00;;;;;18.05;61.36;99656.28;5102214;28;8812;-59
2023/10/11 04:44:30;;;;;;;;;6.20;6.00;;;;;18.04;61.02;99665.41;5089340;28;8818;-58
2023/10/11 04:46:58;;;;;;;;;7.40;6.60;;;;;18.03;61.58;99657.47;5095857;28;8927;-56
2023/10/11 04:49:26;;;;;;;;;2.20;1.40;;;;;18.01;61.42;99660.38;5095958;28;8838;-57
2023/10/11 04:51:56;;;;;;;;;7.00;7.00;;;;;18.02;61.27;99662.06;5096420;28;8910;-56
2023/10/11 04:54:35;;;;;;;;;2.60;2.60;;;;;18.03;61.33;99662.88;5096281;28;8818;-57
2023/10/11 04:57:07;;;;;;;;;4.80;4.80;;;;;18.02;61.38;99662.06;5096020;28;8838;-56
2023/10/11 04:59:38;;;;;;;;;8.60;8.60;;;;;18.01;61.62;99657.69;5095166;28;8872;-58
2023/10/11 05:02:08;;;;;;;;;7.00;7.00;;;;;17.98;61.10;99659.88;5095332;28;8830;-57
2023/10/11 05:04:42;;;;;;;;;4.00;3.80;;;;;17.96;61.52;99667.28;5095120;28;8833;-58
2023/10/11 05:07:09;;;;;;;;;6.00;6.00;;;;;17.93;61.27;99662.25;5095682;28;8848;-56
2023/10/11 05:09:41;;;;;;;;;6.20;6.00;;;;;17.91;61.41;99656.22;5094791;28;8910;-56
2023/10/11 05:12:10;;;;;;;;;7.00;6.00;;;;;17.88;61.55;99665.47;5094589;28;9862;-56
2023/10/11 05:14:39;;;;;;;;;4.00;3.80;;;;;17.83;61.62;99661.63;5094806;28;8876;-57
2023/10/11 05:17:33;;;;;;;;;7.00;6.60;;;;;17.79;61.85;99661.16;5094765;28;8846;-58
2023/10/11 05:23:05;;;;;;;;;11.20;6.40;;;;;17.77;61.50;99656.94;5094571;28;8845;-57
2023/10/11 05:25:58;;;;;;;;;6.20;6.20;;;;;17.76;61.68;99648.00;5094958;28;8822;-57
2023/10/11 05:28:27;;;;;;;;;9.60;8.60;;;;;17.74;61.34;99650.03;5094812;28;8940;-58
2023/10/11 05:31:22;;;;;;;;;6.60;6.20;;;;;17.70;61.71;99656.78;5094757;28;8899;-56
2023/10/11 05:34:29;;;;;;;;;4.00;4.00;;;;;17.69;61.76;99655.09;5094680;28;8829;-58
2023/10/11 05:50:50;;;;;;;;;4.40;4.40;;;;;17.67;61.57;99657.13;5093735;28;8949;-57
2023/10/11 05:50:57;;;;;;;;;4.00;3.40;;;;;17.66;61.58;99660.00;5074209;28;8874;-58
2023/10/11 05:53:25;;;;;;;;;7.00;6.60;;;;;17.66;62.18;99654.59;5081574;28;8830;-57
2023/10/11 05:55:53;;;;;;;;;6.00;4.00;;;;;17.66;61.79;99655.47;5094097;28;8834;-57
2023/10/11 05:58:21;;;;;;;;;4.80;3.60;;;;;17.68;61.79;99639.97;5093276;28;8826;-57
2023/10/11 06:00:53;;;;;;;;;6.20;6.00;;;;;17.70;61.79;99648.69;5093273;28;8834;-59
2023/10/11 06:03:23;;;;;;;;;8.60;7.60;;;;;17.72;61.43;99654.78;5093598;28;8836;-57
2023/10/11 06:05:52;;;;;;;;;3.60;3.60;;;;;17.75;61.44;99654.41;5093348;28;8837;-57
2023/10/11 06:08:23;;;;;;;;;4.00;4.00;;;;;17.77;61.30;99660.47;5093600;28;8973;-57
2023/10/11 06:10:51;;;;;;;;;5.20;4.00;;;;;17.79;61.27;99666.53;5093657;28;8835;-56
2023/10/11 06:13:19;;;;;;;;;6.80;5.60;;;;;17.83;61.09;99656.25;5093837;28;8845;-59
2023/10/11 06:15:58;;;;;;;;;8.20;7.00;;;;;17.88;61.12;99659.25;5093727;28;8822;-57
2023/10/11 06:18:55;;;;;;;;;8.20;4.00;;;;;17.92;61.09;99655.19;5093295;28;8915;-56
2023/10/11 06:24:07;;;;;;;;;5.60;5.60;;;;;17.95;60.81;99655.69;5092672;28;8842;-59
2023/10/11 06:26:56;;;;;;;;;9.20;9.20;;;;;17.96;60.87;99654.66;5093236;28;8838;-59
2023/10/11 06:29:24;;;;;;;;;3.00;1.80;;;;;17.98;61.11;99649.94;5093157;28;8872;-58
2023/10/11 06:31:53;;;;;;;;;7.00;6.80;;;;;18.00;60.65;99653.28;5093177;28;8903;-57
2023/10/11 06:34:40;;;;;;;;;6.60;6.20;;;;;18.03;60.86;99652.94;5092682;28;8826;-58
2023/10/11 06:37:07;;;;;;;;;5.20;5.20;;;;;18.05;60.39;99648.22;5093313;28;8829;-60
2023/10/11 06:40:07;;;;;;;;;7.40;6.40;;;;;18.08;60.68;99634.38;5093521;28;8910;-58
2023/10/11 06:42:23;;;;;;;;;6.20;6.00;;;;;18.11;60.36;99639.44;5093253;28;8837;-57
2023/10/11 06:44:51;;;;;;;;;5.60;5.60;;;;;18.12;60.55;99633.00;5093208;28;8830;-57
2023/10/11 06:47:21;;;;;;;;;6.00;3.80;;;;;18.14;60.83;99633.66;5092924;28;8814;-57
2023/10/11 06:49:49;;;;;;;;;6.00;6.00;;;;;18.18;60.26;99647.63;5096761;28;8934;-57
2023/10/11 06:52:17;;;;;;;;;6.80;6.00;;;;;18.20;60.20;99646.44;5088854;28;8943;-59
2023/10/11 06:54:47;;;;;;;;;5.60;5.60;;;;;18.25;60.16;99656.69;5079962;28;8858;-58
2023/10/11 06:57:19;;;;;;;;;5.20;4.00;;;;;18.29;60.09;99649.94;5087199;28;8812;-59
2023/10/11 06:59:49;;;;;;;;;6.00;6.00;;;;;18.32;59.87;99657.69;5116672;28;8824;-59
2023/10/11 07:02:31;;;;;;;;;4.40;4.40;;;;;18.36;60.34;99659.84;5092354;28;8901;-59
2023/10/11 07:05:05;;;;;;;;;5.60;4.00;;;;;18.42;59.45;99661.00;5077369;28;8905;-58
2023/10/11 07:07:34;;;;;;;;;6.00;6.00;;;;;18.47;59.57;99661.31;5078181;28;8843;-56
2023/10/11 07:10:02;;;;;;;;;4.00;4.00;;;;;18.53;59.51;99663.28;5077143;28;8825;-57
2023/10/11 07:12:39;;;;;;;;;5.20;4.00;;;;;18.60;59.07;99661.56;5086646;28;8822;-58
2023/10/11 07:15:09;;;;;;;;;6.00;5.60;;;;;18.65;59.04;99668.09;5096823;28;8857;-59
2023/10/11 07:17:37;;;;;;;;;6.00;6.00;;;;;18.72;58.74;99668.19;5096982;28;8806;-57
2023/10/11 07:20:29;;;;;;;;;5.40;4.80;;;;;18.76;59.11;99666.81;5097358;28;8850;-58
2023/10/11 07:22:55;;;;;;;;;6.00;6.00;;;;;18.82;59.11;99656.13;5096881;28;8923;-58
2023/10/11 07:28:35;;;;;;;;;6.40;6.40;;;;;18.90;58.60;99655.25;5128862;27;14049;-56
2023/10/11 07:31:02;;;;;;;;;6.80;5.00;;;;;18.99;58.46;99663.09;5111217;28;8838;-57
2023/10/11 07:33:30;;;;;;;;;5.20;4.60;;;;;19.08;58.37;99662.00;5111580;28;8836;-59
2023/10/11 07:35:59;;;;;;;;;4.00;4.00;;;;;19.18;58.52;99667.16;5111588;28;9162;-59
2023/10/11 07:38:34;;;;;;;;;6.40;6.40;;;;;19.27;57.63;99668.78;5112086;28;8915;-59
2023/10/11 07:41:04;;;;;;;;;7.00;6.80;;;;;19.34;58.02;99664.31;5111388;28;9692;-56
2023/10/11 07:43:34;;;;;;;;;0.00;0.00;;;;;19.40;57.54;99666.25;5111640;28;8890;-57
2023/10/11 07:46:02;;;;;;;;;6.00;6.00;;;;;19.47;57.81;99672.59;5111578;28;8839;-56
2023/10/11 07:48:32;;;;;;;;;4.00;4.00;;;;;19.53;57.40;99667.31;5110214;28;8844;-59
2023/10/11 07:51:03;;;;;;;;;6.60;6.60;;;;;19.58;57.79;99675.69;5110823;28;8828;-57
2023/10/11 07:53:32;;;;;;;;;6.40;4.20;;;;;19.64;57.17;99666.00;5111231;28;8848;-57
2023/10/11 07:56:03;;;;;;;;;6.80;5.40;;;;;19.67;57.37;99655.69;5111083;28;8908;-57
2023/10/11 07:58:32;;;;;;;;;6.00;6.00;;;;;19.72;56.98;99655.94;5110666;28;8846;-57
2023/10/11 08:01:04;;;;;;;;;6.00;6.00;;;;;19.76;57.05;99651.84;5110885;28;8843;-59
2023/10/11 08:03:34;;;;;;;;;5.00;5.00;;;;;19.83;57.07;99649.22;5111210;28;9704;-57
2023/10/11 08:06:05;;;;;;;;;6.80;6.60;;;;;19.89;56.67;99641.19;5110432;28;9504;-57
2023/10/11 08:08:33;;;;;;;;;4.80;4.00;;;;;19.94;56.59;99635.25;5109804;28;8824;-59
2023/10/11 08:11:06;;;;;;;;;6.60;5.00;;;;;20.00;56.68;99635.31;5109767;28;8832;-60
2023/10/11 08:13:34;;;;;;;;;5.00;4.00;;;;;20.06;56.57;99637.31;5109474;28;8897;-57
2023/10/11 08:16:05;;;;;;;;;7.40;6.80;;;;;20.15;56.03;99638.00;5109220;28;8846;-58
2023/10/11 08:18:34;;;;;;;;;8.20;7.80;;;;;20.25;55.94;99642.09;5113285;28;8800;-58
2023/10/11 08:21:05;;;;;;;;;6.60;4.80;;;;;20.34;56.32;99646.34;5109953;28;8843;-59
2023/10/11 08:23:35;;;;;;;;;5.00;5.00;;;;;20.44;55.72;99659.56;5109960;28;8855;-59
2023/10/11 08:26:05;;;;;;;;;4.60;4.20;;;;;20.56;55.48;99658.88;5109509;28;8866;-57
2023/10/11 08:28:35;;;;;;;;;3.60;3.60;;;;;20.70;55.02;99660.69;5109326;28;8959;-57
2023/10/11 08:31:04;;;;;;;;;6.20;4.80;;;;;20.84;54.92;99666.03;5108658;28;8845;-57
2023/10/11 08:33:36;;;;;;;;;4.00;4.00;;;;;20.94;54.88;99665.72;5109176;28;8918;-57
2023/10/11 08:36:04;;;;;;;;;4.20;4.20;;;;;21.02;54.76;99652.91;5109621;28;8832;-57
2023/10/11 08:38:35;;;;;;;;;4.40;2.80;;;;;21.10;54.90;99665.47;5101365;28;8825;-57
2023/10/11 08:41:03;;;;;;;;;6.20;6.20;;;;;21.14;54.89;99661.31;5095412;28;8837;-57
2023/10/11 08:43:31;;;;;;;;;6.80;6.20;;;;;21.18;54.85;99662.63;5095658;28;8857;-60
2023/10/11 08:46:05;;;;;;;;;4.00;4.00;;;;;21.22;54.39;99667.44;5095463;28;8851;-59
2023/10/11 08:48:38;;;;;;;;;4.00;4.00;;;;;21.27;54.28;99673.09;5095071;28;8841;-57
2023/10/11 08:51:10;;;;;;;;;5.00;5.00;;;;;21.36;54.43;99676.50;5095562;28;8844;-58
2023/10/11 08:53:38;;;;;;;;;6.20;5.80;;;;;21.44;53.76;99673.66;5095257;28;8969;-59
2023/10/11 08:56:09;;;;;;;;;5.00;5.00;;;;;21.51;53.62;99674.53;5095671;28;8867;-59
2023/10/11 08:58:37;;;;;;;;;4.60;4.60;;;;;21.57;53.94;99674.56;5095427;28;8848;-58
2023/10/11 09:01:05;;;;;;;;;2.40;2.00;;;;;21.66;53.92;99659.03;5095941;28;8848;-57
2023/10/11 09:03:39;;;;;;;;;4.20;4.20;;;;;21.74;53.92;99675.13;5095198;28;8852;-58
2023/10/11 09:06:10;;;;;;;;;4.80;4.80;;;;;21.78;53.91;99671.00;5094273;28;8930;-57
2023/10/11 09:08:38;;;;;;;;;5.00;5.00;;;;;21.79;54.04;99678.09;5094671;28;8845;-59
2023/10/11 09:11:06;;;;;;;;;5.80;5.00;;;;;21.82;53.79;99683.97;5093771;28;8841;-57
2023/10/11 09:13:36;;;;;;;;;4.40;4.00;;;;;21.85;54.03;99683.53;5092570;28;8822;-59
2023/10/11 09:16:12;;;;;;;;;5.00;4.00;;;;;21.87;53.48;99675.22;5093251;28;8896;-59
2023/10/11 09:18:41;;;;;;;;;1.40;1.00;;;;;21.90;53.51;99672.94;5094700;28;8883;-59
2023/10/11 09:21:10;;;;;;;;;4.60;4.20;;;;;21.94;53.49;99663.34;5094815;28;8844;-59
2023/10/11 09:23:37;;;;;;;;;7.20;6.60;;;;;21.98;53.32;99669.22;5095819;28;8849;-59
2023/10/11 09:26:08;;;;;;;;;7.00;6.60;;;;;22.01;53.06;99666.94;5095357;28;8830;-60
2023/10/11 09:28:40;;;;;;;;;7.00;7.00;;;;;22.08;52.91;99675.94;5095704;28;8844;-60
2023/10/11 09:31:11;;;;;;;;;5.00;5.00;;;;;22.17;52.97;99673.91;5095673;28;8850;-59
2023/10/11 09:33:40;;;;;;;;;4.00;4.00;;;;;22.26;52.57;99668.09;5096002;28;8856;-60
2023/10/11 09:36:09;;;;;;;;;4.80;4.80;;;;;22.34;52.71;99678.78;5095657;28;9515;-59
2023/10/11 09:38:40;;;;;;;;;5.60;5.60;;;;;22.41;51.97;99670.66;5095567;28;9484;-58
2023/10/11 09:41:08;;;;;;;;;7.00;5.40;;;;;22.49;52.25;99665.06;5094587;28;8830;-59
2023/10/11 09:43:36;;;;;;;;;7.40;7.00;;;;;22.56;51.52;99674.91;5094200;28;8845;-59
2023/10/11 09:46:04;;;;;;;;;2.00;1.40;;;;;22.64;51.41;99674.72;5094254;28;8830;-59
2023/10/11 09:48:36;;;;;;;;;5.00;5.00;;;;;22.78;51.67;99675.59;5094539;28;8991;-58
2023/10/11 09:51:07;;;;;;;;;5.40;4.60;;;;;22.96;51.25;99673.09;5093431;28;8841;-59
2023/10/11 09:53:35;;;;;;;;;5.00;5.00;;;;;23.18;50.66;99677.31;5094264;28;8891;-59
2023/10/11 09:56:04;;;;;;;;;4.20;4.20;;;;;23.44;50.16;99675.44;5094347;28;8821;-60
2023/10/11 09:58:32;;;;;;;;;4.80;4.80;;;;;23.68;49.56;99669.31;5093795;28;8849;-59
2023/10/11 10:01:06;;;;;;;;;5.00;5.00;;;;;23.90;49.56;99684.38;5094774;28;8857;-59
2023/10/11 10:03:38;;;;;;;;;4.80;4.80;;;;;24.05;49.71;99670.53;5094072;28;8871;-58
2023/10/11 10:06:07;;;;;;;;;5.00;4.00;;;;;24.19;49.65;99662.09;5094529;28;8831;-60
2023/10/11 10:08:35;;;;;;;;;4.40;4.00;;;;;24.30;48.78;99668.75;5094644;28;8842;-58
2023/10/11 10:11:03;;;;;;;;;3.20;3.20;;;;;24.34;49.34;99657.19;5094537;28;8960;-61
2023/10/11 10:13:37;;;;;;;;;6.00;6.00;;;;;24.42;49.48;99653.41;5094287;28;8890;-57
2023/10/11 10:16:05;;;;;;;;;8.60;7.00;;;;;24.47;49.41;99653.56;5093978;28;8853;-58
2023/10/11 10:18:35;;;;;;;;;5.20;5.00;;;;;24.45;49.13;99653.81;5094085;28;8824;-59
2023/10/11 10:21:04;;;;;;;;;4.80;4.80;;;;;24.45;49.12;99664.69;5102895;28;8950;-59
2023/10/11 10:23:37;;;;;;;;;7.40;6.00;;;;;24.55;49.12;99654.19;5099860;28;8887;-60
2023/10/11 10:26:05;;;;;;;;;5.80;5.80;;;;;24.73;48.51;99653.47;5094859;28;8836;-60
2023/10/11 10:28:34;;;;;;;;;7.20;5.80;;;;;25.00;47.90;99649.47;5094150;28;8950;-58
2023/10/11 10:31:04;;;;;;;;;6.20;5.60;;;;;25.29;47.13;99655.16;5096482;28;8835;-59
2023/10/11 10:33:35;;;;;;;;;7.00;6.00;;;;;25.58;46.79;99659.06;5103858;28;9514;-59
2023/10/11 10:36:03;;;;;;;;;5.00;5.00;;;;;25.75;46.29;99656.38;5094353;28;8817;-60
2023/10/11 10:38:34;;;;;;;;;6.80;6.40;;;;;25.85;46.16;99648.50;5099106;28;8913;-59
2023/10/11 10:41:01;;;;;;;;;5.20;5.20;;;;;25.81;46.26;99644.53;5102434;28;8822;-58
2023/10/11 10:43:31;;;;;;;;;7.20;6.40;;;;;25.77;46.71;99637.88;5093689;28;8830;-57
2023/10/11 10:46:03;;;;;;;;;6.00;5.40;;;;;25.74;46.53;99641.06;5093830;28;8853;-60
2023/10/11 10:48:39;;;;;;;;;6.40;6.40;;;;;25.69;46.39;99651.84;5092487;28;8878;-59
2023/10/11 10:51:08;;;;;;;;;6.40;5.80;;;;;25.55;46.82;99637.72;5094240;28;8956;-57
2023/10/11 10:53:35;;;;;;;;;6.00;5.80;;;;;25.39;46.86;99650.03;5100962;28;8845;-58
2023/10/11 10:56:03;;;;;;;;;9.00;9.00;;;;;25.26;47.44;99632.97;5093624;28;8826;-58
2023/10/11 10:58:30;;;;;;;;;9.00;7.00;;;;;25.20;47.44;99636.53;5092869;28;8913;-58
2023/10/11 11:00:59;;;;;;;;;6.80;6.80;;;;;25.19;47.05;99640.31;5092355;28;8841;-58
2023/10/11 11:03:31;;;;;;;;;7.80;7.00;;;;;25.20;47.51;99629.19;5092752;28;8938;-59
2023/10/11 11:06:00;;;;;;;;;6.80;6.20;;;;;25.21;46.93;99633.59;5092596;28;8837;-58
2023/10/11 11:08:31;;;;;;;;;6.00;6.00;;;;;25.18;47.33;99635.94;5092660;28;8852;-57
2023/10/11 11:10:59;;;;;;;;;9.00;7.00;;;;;25.20;47.52;99639.25;5091428;28;8825;-57
2023/10/11 11:13:26;;;;;;;;;7.40;6.80;;;;;25.19;47.12;99632.16;5092659;28;8822;-59
2023/10/11 11:15:56;;;;;;;;;9.00;8.40;;;;;25.21;47.68;99630.03;5092313;28;8830;-58
2023/10/11 11:18:23;;;;;;;;;4.20;4.20;;;;;25.25;47.77;99625.84;5092816;28;8834;-59
2023/10/11 11:20:52;;;;;;;;;6.80;6.20;;;;;25.38;47.06;99639.31;5093430;28;8865;-59
2023/10/11 11:23:19;;;;;;;;;6.00;6.00;;;;;25.62;46.31;99624.84;5093414;28;8842;-59
2023/10/11 11:25:49;;;;;;;;;7.40;6.80;;;;;25.87;46.10;99624.53;5093352;28;8830;-60
2023/10/11 11:28:17;;;;;;;;;7.00;6.20;;;;;26.09;45.37;99628.50;5092735;28;8856;-58
2023/10/11 11:30:45;;;;;;;;;7.00;6.00;;;;;26.32;45.49;99622.31;5092468;28;8842;-57
2023/10/11 11:33:13;;;;;;;;;7.20;7.00;;;;;26.43;45.08;99616.09;5092301;28;8838;-58
2023/10/11 11:35:43;;;;;;;;;1.80;1.80;;;;;26.52;44.86;99629.22;5092596;28;9575;-58
2023/10/11 11:38:20;;;;;;;;;5.40;5.00;;;;;26.51;45.00;99637.63;5092683;28;8821;-57
2023/10/11 11:40:51;;;;;;;;;5.60;5.00;;;;;26.46;44.77;99612.88;5092892;28;8829;-58
2023/10/11 11:43:20;;;;;;;;;6.40;6.00;;;;;26.59;45.11;99621.78;5093015;28;8814;-58
2023/10/11 11:45:49;;;;;;;;;5.00;5.00;;;;;26.83;44.46;99622.66;5092465;28;8849;-60
2023/10/11 11:48:23;;;;;;;;;5.00;4.60;;;;;27.27;43.79;99631.22;5092205;28;8841;-60
2023/10/11 11:50:56;;;;;;;;;6.00;6.00;;;;;27.79;42.90;99626.72;5092253;28;8914;-59
2023/10/11 11:53:23;;;;;;;;;5.80;5.80;;;;;28.26;42.17;99618.16;5092197;28;8818;-60
2023/10/11 11:55:51;;;;;;;;;5.20;5.00;;;;;28.68;41.87;99603.09;5091684;28;9529;-59
2023/10/11 11:58:18;;;;;;;;;4.20;3.40;;;;;29.05;41.04;99603.50;5103019;28;8941;-57
2023/10/11 12:01:04;;;;;;;;;6.60;6.60;;;;;29.31;41.02;99598.19;5092028;28;8934;-58
2023/10/11 12:03:36;;;;;;;;;6.00;6.00;;;;;29.63;40.32;99591.00;5092026;28;8833;-59
2023/10/11 12:06:21;;;;;;;;;7.80;7.20;;;;;29.97;39.76;99589.81;5092217;28;8913;-58
2023/10/11 12:08:50;;;;;;;;;4.40;4.00;;;;;30.13;40.46;99580.72;5092099;28;8845;-60
2023/10/11 12:11:17;;;;;;;;;6.00;6.00;;;;;30.06;39.72;99580.03;5092141;28;8952;-58
2023/10/11 12:13:46;;;;;;;;;4.00;4.00;;;;;30.00;40.30;99567.31;5092880;28;8929;-58
2023/10/11 12:16:18;;;;;;;;;5.80;4.60;;;;;29.71;40.70;99571.34;5095175;28;8830;-58
2023/10/11 12:18:49;;;;;;;;;2.80;2.00;;;;;29.66;41.08;99578.69;5094985;28;8842;-60